Historyczne dane pomiarowe

Dodano dane terminowe – wersja testowa.

Dane z okresu 1951-2019

Wersja bazy: 1.34 [2019-03-16, lista zmian], aktualizacja planowana na 2019-04-15

Dane meteo z obszaru Polski uzyskane na podstawie danych udostępnionych przez Instytut Meteorologii i Gospodarki Wodnej – Państwowy Instytut Badawczy.

 

Wybierz Datę:    

       

TemperaturaWilgotnośćWiatrCiśnienieOpadyŚniegCzas trwania zjawisk
 Stacja t tx tn tng RH VA  wxwx mslp ppp RRR   cm mm wxwxwxwxwxwxwx
1994-10-10 2.8 6.1 -2.7- 85.8- 7.0 0.3---- 0.0------------
1994-10-09 0.9 5.9 -2.3- 84.5- 3.0 0.0---- 0.1------------
1994-10-08 0.9 5.0 -0.8- 90.5- 3.3 0.0---- 0.0------------
1994-10-07 -0.3 4.0 -3.6- 91.8- 5.3 0.0---- 3.7------------
1994-10-06 0.7 3.8 -1.3- 90.3- 4.0 0.0---- 0.3------------
1994-10-05 1.8 5.5 -0.1- 84.3- 7.0 0.7---- 5.0------------
1994-10-04 3.3 12.0 -0.1- 82.0- 5.3 0.0---- 0.0------------
1994-10-03 12.5 13.9 8.7- 84.8- 6.0 1.7---- 15.5------------
1994-10-02 10.3 14.6 7.3- 88.5- 4.0 0.7---- 0.0------------
1994-10-01 11.8 13.9 9.8- 84.5- 5.0 3.3---- 0.0------------
1994-09-30 8.5 12.2 4.9- 85.3- 2.7 1.3---- 0.0------------
1994-09-29 11.1 14.7 5.2- 82.3- 2.3 0.0---- 0.0------------
1994-09-28 10.6 13.4 7.6- 81.5- 5.3 0.7---- 0.0------------
1994-09-27 14.1 17.2 12.2- 89.0- 4.0 0.0---- 4.9------------
1994-09-26 13.7 22.5 7.4- 79.3- 0.3 1.3---- 5.0------------
1994-09-25 14.6 19.0 11.6- 92.0- 6.0 0.0---- 0.0------------
1994-09-24 13.3 22.8 5.2- 82.3- 0.3 0.7---- 0.1------------
1994-09-23 7.3 16.2 1.9- 83.5- 0.0 0.0---- 0.1------------
1994-09-22 8.8 12.4 5.8- 88.8- 6.0 0.0---- 0.0------------
1994-09-21 8.1 9.1 6.9- 96.3- 8.0 0.0---- 2.7------------
1994-09-20 5.9 10.7 1.9- 91.5- 6.0 0.0---- 2.9------------
1994-09-19 8.3 11.9 5.3- 84.3- 5.0 0.0---- 0.0------------
1994-09-18 7.5 11.6 4.6- 77.0- 5.7 1.7---- 0.0------------
1994-09-17 8.2 10.6 6.3- 73.5- 5.3 0.0---- 0.0------------
1994-09-16 9.0 12.6 7.3- 74.5- 5.3 0.0---- 1.5------------
1994-09-15 14.0 19.4 9.7- 71.8- 4.0 0.0---- 5.5------------
1994-09-14 14.6 18.8 11.7- 92.3- 8.0 0.0---- 4.5------------
1994-09-13 15.8 19.6 13.1- 82.0- 5.3 0.0---- 1.2------------
1994-09-12 15.2 19.7 9.0- 82.0- 6.3 0.0---- 1.5------------
1994-09-11 10.8 14.9 8.4- 75.5- 5.0 1.3---- 2.8------------
1994-09-10 12.9 16.9 7.2- 75.5- 2.0 0.0---- 8.1------------
1994-09-09 13.6 19.0 10.3- 76.8- 5.0 0.7---- 0.0------------
1994-09-08 16.2 21.5 11.7- 88.3- 4.7 0.0---- 0.0------------
1994-09-07 14.2 16.9 8.4- 84.0- 8.0 0.7---- 0.0------------
1994-09-06 11.2 16.3 7.8- 83.0- 4.0 0.0---- 2.3------------
1994-09-05 14.1 17.2 9.7- 81.5- 6.7 0.0---- 6.8------------
1994-09-04 12.8 20.0 6.8- 80.0- 1.0 0.0---- 0.0------------
1994-09-03 13.2 17.0 10.2- 88.0- 5.0 0.0---- 0.0------------
1994-09-02 15.0 21.0 10.2- 90.0- 5.3 0.0---- 37.8------------
1994-09-01 16.1 22.5 10.2- 90.8- 7.3 0.0---- 8.5------------
1994-08-31 13.3 20.2 7.0- 84.3- 1.0 0.0---- 6.7------------
1994-08-30 11.7 16.4 6.4- 72.5- 4.7 0.0---- 0.0------------
1994-08-29 10.4 12.9 6.5- 81.3- 4.3 0.0---- 0.0------------
1994-08-28 14.9 19.9 9.9- 84.0- 4.3 1.3---- 13.8------------
1994-08-27 12.6 16.8 7.2- 83.0- 5.0 0.0---- 0.0------------
1994-08-26 12.5 15.3 11.6- 96.8- 8.0 0.0---- 7.5------------
1994-08-25 14.4 19.3 9.7- 88.5- 6.3 0.0---- 36.5------------
1994-08-24 14.7 21.5 10.4- 87.8- 5.0 0.0---- 0.3------------
1994-08-23 15.1 20.7 9.1- 86.0- 7.7 0.0---- 0.0------------
1994-08-22 14.2 21.0 8.6- 81.8- 1.7 0.0---- 0.0------------
1994-08-21 13.3 20.0 7.8- 80.8- 3.7 0.0---- 0.0------------
1994-08-20 13.3 16.3 10.7- 77.0- 4.0 0.0---- 0.0------------
1994-08-19 10.4 13.0 7.8- 88.5- 7.3 0.7---- 16.0------------
1994-08-18 10.7 16.5 8.7- 89.0- 8.0 0.0---- 35.5------------
1994-08-17 13.3 22.7 6.3- 76.0- 5.7 0.0---- 4.1------------
1994-08-16 13.2 22.2 9.7- 74.3- 4.7 0.0---- 0.0------------
1994-08-15 11.3 14.4 7.8- 70.8- 6.0 2.3---- 0.0------------
1994-08-14 10.6 14.4 8.1- 68.5- 6.0 1.0---- 0.0------------
1994-08-13 14.2 17.6 11.4- 78.0- 6.7 1.0---- 0.1------------
1994-08-12 15.1 19.0 11.2- 85.5- 8.0 0.3---- 3.5------------
524.9 ms

 

Źródłem pochodzenia danych jest Instytut Meteorologii i Gospodarki Wodnej – Państwowy Instytut Badawczy. Dane Instytutu Meteorologii i Gospodarki Wodnej – Państwowego Instytutu Badawczego zostały przetworzone.

Dane źródłowe można odnaleźć na stronie https://dane.imgw.pl